Time;durP1;ratioP1;P1;durP2;ratioP2;P2;SDS_P1;SDS_P2;PMS_P1;PMS_P2;Temp;Humidity;BMP_temperature;BMP_pressure;BME280_temperature;BME280_humidity;BME280_pressure;Samples;Min_cycle;Max_cycle;Signal;HPM_P1;HPM_P2
2023/10/15 00:01:31;;;;;;;;;;;;;;;15.79;59.22;98949.16;4980151;28;19952;-95
2023/10/15 00:03:57;;;;;;;;;;;;;;;15.81;59.69;98960.50;4980540;28;19914;-95
2023/10/15 00:06:23;;;;;;;;;;;;;;;15.73;59.66;98955.88;4981058;28;19914;-95
2023/10/15 00:08:48;;;;;;;;;;;;;;;15.73;59.49;98947.72;4980753;28;19925;-95
2023/10/15 00:11:18;;;;;;;;;;;;;;;15.62;59.91;98943.63;4996169;28;19940;-95
2023/10/15 00:13:44;;;;;;;;;;;;;;;15.56;59.81;98937.53;4980565;28;20351;-95
2023/10/15 00:16:16;;;;;;;;;;;;;;;15.49;60.09;98932.56;4980928;28;20011;-95
2023/10/15 00:18:42;;;;;;;;;;;;;;;15.51;59.99;98938.47;4979780;28;19924;-95
2023/10/15 00:21:12;;;;;;;;;;;;;;;15.46;60.13;98933.19;4980783;28;20340;-94
2023/10/15 00:23:37;;;;;;;;;;;;;;;15.41;60.36;98935.22;4980192;28;19920;-94
2023/10/15 00:26:04;;;;;;;;;;;;;;;15.33;60.34;98931.34;4980211;28;20323;-96
2023/10/15 00:28:31;;;;;;;;;;;;;;;15.30;60.56;98930.06;4979703;28;19917;-96
2023/10/15 00:30:56;;;;;;;;;;;;;;;15.27;60.53;98927.16;4996281;28;19914;-94
2023/10/15 00:33:22;;;;;;;;;;;;;;;15.25;60.75;98929.38;4979827;28;19914;-93
2023/10/15 00:35:53;;;;;;;;;;;;;;;15.16;61.05;98915.78;4980392;28;19914;-94
2023/10/15 00:38:19;;;;;;;;;;;;;;;15.12;61.15;98918.31;4979493;28;19913;-94
2023/10/15 00:40:45;;;;;;;;;;;;;;;15.12;61.35;98926.44;4980244;28;19986;-94
2023/10/15 00:43:13;;;;;;;;;;;;;;;15.08;61.33;98917.31;4979993;28;19918;-94
2023/10/15 00:45:43;;;;;;;;;;;;;;;14.98;61.80;98906.72;4995757;28;19914;-95
2023/10/15 00:48:11;;;;;;;;;;;;;;;14.92;61.67;98916.91;4979520;28;19922;-94
2023/10/15 00:50:41;;;;;;;;;;;;;;;14.85;62.01;98913.81;4983184;28;20347;-95
2023/10/15 00:53:22;;;;;;;;;;;;;;;14.84;61.94;98909.53;4983127;28;20005;-95
2023/10/15 00:55:52;;;;;;;;;;;;;;;14.79;62.56;98909.63;4983645;28;19913;-95
2023/10/15 00:58:45;;;;;;;;;;;;;;;14.76;62.42;98907.53;4982877;28;19975;-96
2023/10/15 01:03:54;;;;;;;;;;;;;;;14.68;62.78;98900.94;4999272;28;19914;-95
2023/10/15 01:08:51;;;;;;;;;;;;;;;14.51;63.25;98901.56;5000169;28;20307;-94
2023/10/15 01:11:20;;;;;;;;;;;;;;;14.45;63.33;98894.69;4984805;28;19913;-96
2023/10/15 01:13:45;;;;;;;;;;;;;;;14.44;63.18;98889.56;4999571;28;19949;-95
2023/10/15 01:16:17;;;;;;;;;;;;;;;14.39;63.36;98892.41;4984632;28;19965;-95
2023/10/15 01:18:43;;;;;;;;;;;;;;;14.32;63.54;98885.50;4982782;28;20011;-95
2023/10/15 01:21:14;;;;;;;;;;;;;;;14.28;63.60;98889.91;4982948;28;19922;-94
2023/10/15 01:26:23;;;;;;;;;;;;;;;14.23;63.82;98890.00;4999129;28;19926;-96
2023/10/15 01:28:51;;;;;;;;;;;;;;;14.19;64.04;98886.31;4982904;28;19921;-95
2023/10/15 01:31:17;;;;;;;;;;;;;;;14.22;63.86;98884.91;4982492;28;19956;-94
2023/10/15 01:33:53;;;;;;;;;;;;;;;14.19;64.04;98891.72;4982745;28;19921;-95
2023/10/15 01:36:27;;;;;;;;;;;;;;;14.22;63.83;98893.84;4982696;28;20012;-94
2023/10/15 01:38:55;;;;;;;;;;;;;;;14.25;63.79;98890.50;4982869;28;19936;-94
2023/10/15 01:41:28;;;;;;;;;;;;;;;14.21;64.05;98897.63;4998804;28;19918;-94
2023/10/15 01:44:00;;;;;;;;;;;;;;;14.12;64.15;98888.63;4982465;28;19936;-93
2023/10/15 01:49:17;;;;;;;;;;;;;;;14.05;64.44;98883.63;4999709;28;19922;-94
2023/10/15 01:51:44;;;;;;;;;;;;;;;14.05;64.62;98891.75;4982505;28;19921;-94
2023/10/15 01:54:10;;;;;;;;;;;;;;;14.03;64.86;98893.97;4982473;28;19936;-95
2023/10/15 01:56:44;;;;;;;;;;;;;;;14.00;64.94;98896.47;4981986;28;19918;-94
2023/10/15 01:59:10;;;;;;;;;;;;;;;13.97;65.08;98891.69;4981571;28;19920;-94
2023/10/15 02:01:49;;;;;;;;;;;;;;;14.02;64.95;98883.44;4981550;28;19913;-94
2023/10/15 02:04:29;;;;;;;;;;;;;;;14.04;65.01;98883.94;4982525;28;19918;-94
2023/10/15 02:06:55;;;;;;;;;;;;;;;14.04;64.72;98884.72;4982349;28;20003;-94
2023/10/15 02:09:23;;;;;;;;;;;;;;;14.06;64.55;98882.53;4982479;28;19914;-94
2023/10/15 02:11:52;;;;;;;;;;;;;;;14.08;64.26;98887.63;4983012;28;19918;-94
2023/10/15 02:14:21;;;;;;;;;;;;;;;14.09;64.34;98884.63;4982029;28;19952;-92
2023/10/15 02:16:49;;;;;;;;;;;;;;;14.06;64.46;98879.81;4982127;28;20001;-94
2023/10/15 02:22:17;;;;;;;;;;;;;;;13.97;64.88;98872.72;4966983;28;20386;-94
2023/10/15 02:24:49;;;;;;;;;;;;;;;13.94;65.02;98885.75;4982656;28;19996;-94
2023/10/15 02:27:25;;;;;;;;;;;;;;;13.88;65.33;98884.28;4983895;28;20008;-96
2023/10/15 02:29:53;;;;;;;;;;;;;;;13.87;65.53;98881.84;5003131;28;19949;-95
2023/10/15 02:32:31;;;;;;;;;;;;;;;13.95;65.26;98881.94;4987847;28;19924;-96
2023/10/15 02:35:02;;;;;;;;;;;;;;;14.01;65.07;98882.66;4987099;28;20012;-95
2023/10/15 02:37:30;;;;;;;;;;;;;;;13.98;65.19;98877.03;4986837;28;19922;-94
2023/10/15 02:40:03;;;;;;;;;;;;;;;13.90;65.65;98881.25;4987279;28;19952;-95
2023/10/15 02:42:33;;;;;;;;;;;;;;;13.89;65.74;98879.66;4987545;28;19918;-96
2023/10/15 02:45:01;;;;;;;;;;;;;;;13.84;65.79;98877.84;5001304;28;19925;-95
2023/10/15 02:47:31;;;;;;;;;;;;;;;13.87;65.68;98879.94;4985600;28;20004;-95
2023/10/15 02:50:00;;;;;;;;;;;;;;;13.77;65.94;98880.16;4986587;28;19917;-95
2023/10/15 02:52:35;;;;;;;;;;;;;;;13.72;66.04;98877.56;4986848;28;19918;-96
2023/10/15 02:55:09;;;;;;;;;;;;;;;13.69;65.96;98878.16;5003724;28;19914;-96
2023/10/15 02:57:40;;;;;;;;;;;;;;;13.62;65.96;98872.34;4988071;28;19918;-96
2023/10/15 03:00:28;;;;;;;;;;;;;;;13.56;65.95;98876.25;4928332;29;19925;-96
2023/10/15 03:02:58;;;;;;;;;;;;;;;13.50;66.01;98872.84;4914647;29;19915;-96
2023/10/15 03:05:30;;;;;;;;;;;;;;;13.41;66.24;98875.44;4929468;29;19915;-96
2023/10/15 03:08:03;;;;;;;;;;;;;;;13.35;66.49;98868.53;4913939;29;19950;-96
2023/10/15 03:10:45;;;;;;;;;;;;;;;13.32;66.47;98874.53;4929468;29;19911;-96
2023/10/15 03:13:27;;;;;;;;;;;;;;;13.29;66.66;98875.13;4916824;29;19974;-93
2023/10/15 03:15:53;;;;;;;;;;;;;;;13.27;66.71;98874.59;4912271;29;19926;-95
2023/10/15 03:18:28;;;;;;;;;;;;;;;13.26;66.69;98873.81;4910862;29;20422;-95
2023/10/15 03:21:10;;;;;;;;;;;;;;;13.26;66.82;98865.69;4925909;29;19925;-96
2023/10/15 03:23:36;;;;;;;;;;;;;;;13.23;66.65;98870.88;4912436;29;20002;-95
2023/10/15 03:26:05;;;;;;;;;;;;;;;13.27;66.67;98867.28;4909757;29;19955;-95
2023/10/15 03:28:35;;;;;;;;;;;;;;;13.30;66.50;98869.44;4924942;29;20369;-95
2023/10/15 03:31:00;;;;;;;;;;;;;;;13.34;66.58;98872.31;4939919;28;19913;-93
2023/10/15 03:33:30;;;;;;;;;;;;;;;13.29;66.59;98869.72;4986052;28;20347;-96
2023/10/15 03:35:56;;;;;;;;;;;;;;;13.26;66.80;98867.56;4986571;28;20437;-95
2023/10/15 03:38:32;;;;;;;;;;;;;;;13.24;66.63;98873.28;4985544;28;19985;-96
2023/10/15 03:41:11;;;;;;;;;;;;;;;13.19;66.69;98870.66;4983614;28;19914;-94
2023/10/15 03:43:36;;;;;;;;;;;;;;;13.21;66.93;98873.88;4982443;28;19953;-94
2023/10/15 03:49:03;;;;;;;;;;;;;;;13.23;66.60;98862.78;4976289;28;19914;-92
2023/10/15 03:51:29;;;;;;;;;;;;;;;13.23;66.49;98870.88;4981522;28;19914;-94
2023/10/15 03:53:58;;;;;;;;;;;;;;;13.21;66.60;98868.47;4981347;28;19932;-94
2023/10/15 03:56:27;;;;;;;;;;;;;;;13.18;66.65;98871.78;4997695;28;19922;-95
2023/10/15 03:58:56;;;;;;;;;;;;;;;13.17;66.44;98863.97;4980752;28;19914;-93
2023/10/15 04:01:22;;;;;;;;;;;;;;;13.05;66.96;98859.84;4979639;28;20413;-93
2023/10/15 04:03:47;;;;;;;;;;;;;;;13.08;66.73;98859.25;4980818;28;19918;-92
2023/10/15 04:06:13;;;;;;;;;;;;;;;13.07;66.76;98860.34;4996858;28;19956;-93
2023/10/15 04:08:39;;;;;;;;;;;;;;;13.01;67.09;98863.41;4996398;28;20469;-94
2023/10/15 04:11:06;;;;;;;;;;;;;;;13.03;67.12;98858.53;4979914;28;19968;-94
2023/10/15 04:13:33;;;;;;;;;;;;;;;12.99;66.99;98861.03;4996449;28;19914;-94
2023/10/15 04:16:02;;;;;;;;;;;;;;;12.99;67.16;98855.63;4997164;28;20441;-94
2023/10/15 04:18:29;;;;;;;;;;;;;;;12.98;67.23;98866.72;4979627;28;20013;-95
2023/10/15 04:20:55;;;;;;;;;;;;;;;12.90;67.45;98857.41;4979254;28;19914;-95
2023/10/15 04:23:44;;;;;;;;;;;;;;;12.87;67.27;98856.09;4979030;28;19914;-95
2023/10/15 04:26:11;;;;;;;;;;;;;;;12.86;67.34;98850.97;4996125;28;20004;-93
2023/10/15 04:28:38;;;;;;;;;;;;;;;12.80;67.73;98847.56;4979440;28;19941;-95
2023/10/15 04:31:12;;;;;;;;;;;;;;;12.86;67.45;98861.78;4979311;28;19913;-95
2023/10/15 04:33:41;;;;;;;;;;;;;;;12.83;67.50;98857.78;4982705;28;19914;-94
2023/10/15 04:36:09;;;;;;;;;;;;;;;12.81;67.33;98854.56;4996318;28;19930;-94
2023/10/15 04:38:36;;;;;;;;;;;;;;;12.82;67.22;98855.38;4979253;28;20004;-95
2023/10/15 04:41:03;;;;;;;;;;;;;;;12.77;67.82;98856.25;4980224;28;19921;-95
2023/10/15 04:43:30;;;;;;;;;;;;;;;12.82;67.55;98852.66;4996021;28;19945;-94
2023/10/15 04:45:56;;;;;;;;;;;;;;;12.83;67.57;98854.28;4996516;28;20000;-93
2023/10/15 04:48:30;;;;;;;;;;;;;;;12.90;67.26;98849.28;4996331;28;19913;-93
2023/10/15 04:51:04;;;;;;;;;;;;;;;12.89;67.44;98853.09;4981159;28;19913;-94
2023/10/15 04:53:30;;;;;;;;;;;;;;;12.86;67.54;98853.69;4980911;28;19914;-94
2023/10/15 04:55:59;;;;;;;;;;;;;;;12.90;67.46;98857.41;4980248;28;19917;-93
2023/10/15 04:58:27;;;;;;;;;;;;;;;12.89;67.32;98856.59;4979666;28;19925;-95
2023/10/15 05:00:55;;;;;;;;;;;;;;;12.87;67.30;98855.31;4979590;28;20384;-95
2023/10/15 05:03:23;;;;;;;;;;;;;;;12.87;67.58;98853.38;4979062;28;19953;-94
2023/10/15 05:05:53;;;;;;;;;;;;;;;12.81;67.55;98854.56;4979359;28;19972;-95
2023/10/15 05:08:18;;;;;;;;;;;;;;;12.82;67.62;98855.38;4979197;28;19925;-95
2023/10/15 05:10:45;;;;;;;;;;;;;;;12.79;67.73;98856.78;4979260;28;20348;-94
2023/10/15 05:13:11;;;;;;;;;;;;;;;12.84;67.60;98845.88;4979484;28;19914;-95
2023/10/15 05:15:37;;;;;;;;;;;;;;;12.81;67.76;98854.56;4979227;28;19920;-96
2023/10/15 05:18:05;;;;;;;;;;;;;;;12.82;67.73;98852.66;4978605;28;19922;-95
2023/10/15 05:20:31;;;;;;;;;;;;;;;12.80;68.09;98852.97;4979400;28;19913;-94
2023/10/15 05:22:58;;;;;;;;;;;;;;;12.76;67.98;98853.84;4978646;28;19914;-94
2023/10/15 05:25:24;;;;;;;;;;;;;;;12.82;67.59;98860.78;4979024;28;19941;-95
2023/10/15 05:27:50;;;;;;;;;;;;;;;12.82;67.87;98863.47;4992447;28;19933;-94
2023/10/15 05:30:16;;;;;;;;;;;;;;;12.77;67.83;98860.88;4996544;28;19914;-95
2023/10/15 05:32:42;;;;;;;;;;;;;;;12.72;68.19;98859.03;4978218;28;20401;-95
2023/10/15 05:35:08;;;;;;;;;;;;;;;12.61;68.32;98865.72;4996083;28;19922;-96
2023/10/15 05:37:36;;;;;;;;;;;;;;;12.70;68.16;98869.31;4982165;28;19925;-95
2023/10/15 05:40:03;;;;;;;;;;;;;;;12.73;68.03;98868.75;4983049;28;19914;-95
2023/10/15 05:42:31;;;;;;;;;;;;;;;12.85;67.54;98863.69;4998762;28;20338;-95
2023/10/15 05:44:56;;;;;;;;;;;;;;;12.92;67.60;98866.00;4984089;28;19989;-96
2023/10/15 05:47:22;;;;;;;;;;;;;;;13.02;67.46;98873.94;4982737;28;19953;-95
2023/10/15 05:49:48;;;;;;;;;;;;;;;13.08;67.63;98866.56;4982454;28;19922;-94
2023/10/15 05:52:14;;;;;;;;;;;;;;;13.13;67.37;98871.84;4999104;28;20288;-95
2023/10/15 05:54:40;;;;;;;;;;;;;;;13.17;67.53;98877.47;4982960;28;19914;-95
2023/10/15 05:57:06;;;;;;;;;;;;;;;13.26;67.35;98864.88;4997628;28;19925;-94
2023/10/15 05:59:40;;;;;;;;;;;;;;;13.31;67.07;98870.22;4982766;28;19913;-93
2023/10/15 06:02:06;;;;;;;;;;;;;;;13.33;67.17;98868.81;4994973;28;19989;-94
2023/10/15 06:04:33;;;;;;;;;;;;;;;13.37;66.49;98874.44;4981617;28;19979;-94
2023/10/15 06:06:58;;;;;;;;;;;;;;;13.42;66.39;98877.03;4998114;28;19917;-95
2023/10/15 06:09:24;;;;;;;;;;;;;;;13.53;66.04;98881.16;4981325;28;19914;-94
2023/10/15 06:11:50;;;;;;;;;;;;;;;13.65;65.83;98886.06;5014133;28;20427;-94
2023/10/15 06:14:28;;;;;;;;;;;;;;;13.75;65.72;98888.56;4998079;28;20004;-94
2023/10/15 06:17:06;;;;;;;;;;;;;;;13.79;65.59;98880.66;4959534;29;19926;-96
2023/10/15 06:19:31;;;;;;;;;;;;;;;13.92;65.17;98882.56;4945028;29;20237;-94
2023/10/15 06:21:57;;;;;;;;;;;;;;;13.99;65.04;98884.06;4944259;29;19918;-94
2023/10/15 06:24:24;;;;;;;;;;;;;;;14.06;64.60;98887.16;4942908;29;19949;-93
2023/10/15 06:26:53;;;;;;;;;;;;;;;14.23;64.24;98894.63;4942620;29;19972;-94
2023/10/15 06:29:19;;;;;;;;;;;;;;;14.31;64.09;98883.06;4959578;29;20348;-94
2023/10/15 06:31:44;;;;;;;;;;;;;;;14.35;63.63;98878.66;4943923;29;19929;-94
2023/10/15 06:34:10;;;;;;;;;;;;;;;14.51;63.45;98879.91;4942444;29;20325;-94
2023/10/15 06:36:36;;;;;;;;;;;;;;;14.54;63.43;98882.00;4942736;29;19977;-93
2023/10/15 06:39:01;;;;;;;;;;;;;;;14.63;63.27;98884.81;4943383;29;19914;-95
2023/10/15 06:41:27;;;;;;;;;;;;;;;14.72;63.14;98876.75;4967195;28;19957;-95
2023/10/15 06:43:54;;;;;;;;;;;;;;;14.86;62.47;98872.06;4997866;28;19937;-94
2023/10/15 06:46:34;;;;;;;;;;;;;;;;;;;;;
2023/10/15 06:49:00;;;;;;;;;;;;;;;15.00;61.68;98871.19;4998981;28;20025;-95
2023/10/15 06:51:28;;;;;;;;;;;;;;;15.08;62.04;98871.22;4998706;28;19913;-94
2023/10/15 06:53:53;;;;;;;;;;;;;;;15.22;61.23;98871.16;4998196;28;19945;-95
2023/10/15 06:56:19;;;;;;;;;;;;;;;15.39;60.21;98869.63;4997635;28;19913;-94
2023/10/15 06:58:45;;;;;;;;;;;;;;;15.49;59.57;98877.50;4999594;28;20380;-93
2023/10/15 07:01:10;;;;;;;;;;;;;;;15.63;59.08;98866.53;4981444;28;19921;-94
2023/10/15 07:03:37;;;;;;;;;;;;;;;15.78;58.81;98868.06;4999402;28;19913;-94
2023/10/15 07:06:06;;;;;;;;;;;;;;;15.91;58.57;98873.34;4984340;28;19920;-93
2023/10/15 07:08:34;;;;;;;;;;;;;;;15.96;58.52;98873.19;4983740;28;19981;-96
2023/10/15 07:10:59;;;;;;;;;;;;;;;16.06;58.13;98868.56;5000744;28;19981;-94
2023/10/15 07:13:26;;;;;;;;;;;;;;;16.22;57.80;98867.00;4984346;28;19945;-94
2023/10/15 07:15:53;;;;;;;;;;;;;;;16.32;56.93;98863.19;4984403;28;19913;-94
2023/10/15 07:18:19;;;;;;;;;;;;;;;16.49;55.97;98867.81;5000673;28;20011;-93
2023/10/15 07:20:45;;;;;;;;;;;;;;;16.62;55.57;98864.16;4982532;28;19914;-92
2023/10/15 07:23:10;;;;;;;;;;;;;;;16.71;56.13;98861.41;4998286;28;20422;-94
2023/10/15 07:25:36;;;;;;;;;;;;;;;16.81;55.81;98863.84;4981887;28;20008;-92
2023/10/15 07:28:08;;;;;;;;;;;;;;;16.95;55.87;98864.44;4995452;28;19929;-92
2023/10/15 07:30:35;;;;;;;;;;;;;;;17.08;55.68;98859.13;4999736;28;19957;-94
2023/10/15 07:33:01;;;;;;;;;;;;;;;17.19;54.99;98854.94;4981328;28;19914;-92
2023/10/15 07:35:38;;;;;;;;;;;;;;;17.28;54.62;98863.06;4996800;28;19968;-94
2023/10/15 07:38:07;;;;;;;;;;;;;;;17.40;54.39;98855.03;4981843;28;19922;-93
2023/10/15 07:40:35;;;;;;;;;;;;;;;17.49;53.79;98853.06;4983138;28;19922;-94
2023/10/15 07:43:13;;;;;;;;;;;;;;;;;;;;;
2023/10/15 07:45:38;;;;;;;;;;;;;;;17.70;53.75;98852.31;4998390;28;19924;-92
2023/10/15 07:48:04;;;;;;;;;;;;;;;17.87;53.64;98851.47;4998731;28;19949;-93
2023/10/15 07:50:30;;;;;;;;;;;;;;;18.00;53.33;98852.34;4998228;28;19968;-92
2023/10/15 07:52:59;;;;;;;;;;;;;;;18.15;52.55;98849.81;5014438;28;20308;-93
2023/10/15 07:55:27;;;;;;;;;;;;;;;18.27;51.90;98840.91;4996309;28;19996;-90
2023/10/15 07:57:53;;;;;;;;;;;;;;;18.35;53.20;98831.88;4999103;28;20364;-93
2023/10/15 08:00:26;;;;;;;;;;;;;;;18.51;52.54;98839.44;5001137;28;19921;-92
2023/10/15 08:02:57;;;;;;;;;;;;;;;18.65;51.81;98837.22;4998800;28;19924;-93
2023/10/15 08:05:24;;;;;;;;;;;;;;;18.74;50.76;98837.16;4997498;28;19914;-93
2023/10/15 08:07:50;;;;;;;;;;;;;;;18.90;50.27;98834.59;4997234;28;19972;-93
2023/10/15 08:10:17;;;;;;;;;;;;;;;18.95;50.02;98828.94;4982526;28;20323;-95
2023/10/15 08:12:43;;;;;;;;;;;;;;;19.09;49.70;98818.53;4988734;28;19922;-93
2023/10/15 08:15:11;;;;;;;;;;;;;;;19.24;49.46;98827.19;5001453;28;19913;-96
2023/10/15 08:17:39;;;;;;;;;;;;;;;19.37;48.78;98818.66;5016168;28;19918;-94
2023/10/15 08:20:09;;;;;;;;;;;;;;;19.48;49.21;98813.53;4967370;28;20357;-94
2023/10/15 08:22:35;;;;;;;;;;;;;;;19.58;48.61;98812.28;4982400;28;19918;-95
2023/10/15 08:25:04;;;;;;;;;;;;;;;19.69;47.79;98801.69;4997543;28;20359;-94
2023/10/15 08:27:33;;;;;;;;;;;;;;;19.81;47.04;98796.25;4982747;28;20396;-95
2023/10/15 08:29:59;;;;;;;;;;;;;;;19.93;46.46;98796.22;4962430;28;19992;-94
2023/10/15 08:32:27;;;;;;;;;;;;;;;20.03;46.17;98794.94;4961551;28;19914;-93
2023/10/15 08:34:55;;;;;;;;;;;;;;;20.14;45.47;98801.50;4960944;28;19914;-94
2023/10/15 08:37:23;;;;;;;;;;;;;;;20.21;44.71;98798.19;4945078;28;19918;-96
2023/10/15 08:39:49;;;;;;;;;;;;;;;20.34;43.98;98799.75;4962781;28;19919;-93
2023/10/15 08:42:19;;;;;;;;;;;;;;;20.49;44.13;98800.16;4960857;28;19918;-93
2023/10/15 08:44:44;;;;;;;;;;;;;;;20.58;44.52;98798.06;4977615;28;20424;-94
2023/10/15 08:47:10;;;;;;;;;;;;;;;20.72;43.54;98792.19;4945517;28;20021;-93
2023/10/15 08:49:39;;;;;;;;;;;;;;;20.81;43.15;98806.50;4944607;28;19977;-94
2023/10/15 08:52:06;;;;;;;;;;;;;;;20.95;43.14;98797.88;4945454;28;19914;-95
2023/10/15 08:54:31;;;;;;;;;;;;;;;21.06;43.57;98803.63;4944215;28;20417;-96
2023/10/15 08:56:59;;;;;;;;;;;;;;;21.14;42.42;98795.22;4960472;28;19974;-93
2023/10/15 08:59:24;;;;;;;;;;;;;;;21.26;42.11;98794.34;4944691;28;19918;-93
2023/10/15 09:01:52;;;;;;;;;;;;;;;21.44;41.83;98792.06;4945128;28;19929;-94
2023/10/15 09:04:28;;;;;;;;;;;;;;;21.61;41.01;98777.19;4944789;28;19914;-94
2023/10/15 09:07:01;;;;;;;;;;;;;;;21.89;40.44;98782.50;4945882;28;19914;-95
2023/10/15 09:09:26;;;;;;;;;;;;;;;22.07;39.81;98779.38;4961217;28;19960;-93
2023/10/15 09:11:54;;;;;;;;;;;;;;;22.25;39.46;98775.06;4951336;28;19914;-96
2023/10/15 09:14:36;;;;;;;;;;;;;;;22.45;39.41;98778.59;4951514;28;20390;-96
2023/10/15 09:17:14;;;;;;;;;;;;;;;22.59;38.61;98775.31;4983838;28;19924;-95
2023/10/15 09:23:15;;;;;;;;;;;;;;;22.78;38.78;98771.75;4958385;28;19918;-96
2023/10/15 09:25:41;;;;;;;;;;;;;;;22.76;38.35;98766.63;4954905;28;19982;-95
2023/10/15 09:28:30;;;;;;;;;;;;;;;22.84;38.31;98759.31;4989848;28;19926;-94
2023/10/15 09:31:14;;;;;;;;;;;;;;;;;;;;;
2023/10/15 09:33:51;;;;;;;;;;;;;;;;;;;;;
2023/10/15 09:39:48;;;;;;;;;;;;;;;;;;;;;
2023/10/15 09:45:37;;;;;;;;;;;;;;;24.15;34.73;98736.13;4964526;29;19954;-95
2023/10/15 09:48:51;;;;;;;;;;;;;;;24.39;34.51;98741.13;4950984;29;19914;-96
2023/10/15 09:54:25;;;;;;;;;;;;;;;24.66;33.85;98732.00;4954096;28;20416;-96
2023/10/15 09:57:19;;;;;;;;;;;;;;;24.78;34.29;98735.25;4953203;29;19929;-95
2023/10/15 09:59:53;;;;;;;;;;;;;;;24.90;33.71;98736.13;4946475;29;19970;-96
2023/10/15 10:02:41;;;;;;;;;;;;;;;;;;;;;
2023/10/15 10:06:01;;;;;;;;;;;;;;;;;;;;;
2023/10/15 10:08:16;;;;;;;;;;;;;;;25.15;32.97;98726.13;5000598;28;20364;-96
2023/10/15 10:11:17;;;;;;;;;;;;;;;25.30;33.36;98718.00;5007590;28;19920;-95
2023/10/15 10:16:51;;;;;;;;;;;;;;;25.64;32.01;98724.09;4987589;28;20406;-96
2023/10/15 10:19:55;;;;;;;;;;;;;;;;;;;;;
2023/10/15 10:22:46;;;;;;;;;;;;;;;;;;;;;
2023/10/15 10:25:45;;;;;;;;;;;;;;;;;;;;;
2023/10/15 10:31:07;;;;;;;;;;;;;;;26.03;32.41;98706.19;4977102;28;19918;-96
2023/10/15 10:33:44;;;;;;;;;;;;;;;26.04;31.92;98699.47;4992276;28;19968;-96
2023/10/15 10:36:29;;;;;;;;;;;;;;;;;;;;;
2023/10/15 10:39:07;;;;;;;;;;;;;;;26.04;31.90;98691.19;5117769;22;19949;-95
2023/10/15 10:42:01;;;;;;;;;;;;;;;25.88;32.18;98688.75;5070015;28;20034;-96
2023/10/15 10:44:28;;;;;;;;;;;;;;;25.79;32.63;98680.81;5071162;28;19912;-95
2023/10/15 10:46:59;;;;;;;;;;;;;;;25.58;32.42;98690.56;5068374;28;19912;-94
2023/10/15 10:50:29;;;;;;;;;;;;;;;;;;;;;
2023/10/15 10:53:03;;;;;;;;;;;;;;;25.28;33.41;98676.25;5035199;28;19897;-95
2023/10/15 10:55:32;;;;;;;;;;;;;;;25.18;33.45;98672.22;5008355;28;19905;-95
2023/10/15 10:58:03;;;;;;;;;;;;;;;25.10;32.98;98662.31;5001802;28;19934;-95
2023/10/15 11:00:30;;;;;;;;;;;;;;;25.05;33.24;98663.47;5036789;28;19924;-94
2023/10/15 11:02:57;;;;;;;;;;;;;;;25.12;33.32;98658.00;5062670;28;19912;-95
2023/10/15 11:05:23;;;;;;;;;;;;;;;25.20;33.32;98654.16;5060936;28;19948;-95
2023/10/15 11:07:52;;;;;;;;;;;;;;;25.28;33.09;98659.72;5063502;28;19920;-94
2023/10/15 11:10:19;;;;;;;;;;;;;;;25.17;33.19;98645.81;5060787;28;19913;-95
2023/10/15 11:12:51;;;;;;;;;;;;;;;25.25;33.43;98643.94;5060743;28;19912;-96
2023/10/15 11:15:18;;;;;;;;;;;;;;;25.22;33.12;98647.47;5060870;28;19917;-94
2023/10/15 11:17:59;;;;;;;;;;;;;;;25.22;33.49;98642.75;5062056;28;19912;-96
2023/10/15 11:20:27;;;;;;;;;;;;;;;25.24;33.34;98643.16;5061536;28;19921;-96
2023/10/15 11:23:01;;;;;;;;;;;;;;;25.36;33.24;98636.53;5061984;28;20006;-96
2023/10/15 11:25:29;;;;;;;;;;;;;;;25.34;32.67;98636.91;5061256;28;19920;-96
2023/10/15 11:27:55;;;;;;;;;;;;;;;25.35;33.29;98641.25;5060008;28;19912;-96
2023/10/15 11:30:29;;;;;;;;;;;;;;;25.53;32.36;98646.06;5017263;28;19960;-95
2023/10/15 11:33:17;;;;;;;;;;;;;;;;;;;;;
2023/10/15 11:35:53;;;;;;;;;;;;;;;25.62;32.65;98643.72;5018207;28;20004;-96
2023/10/15 11:38:26;;;;;;;;;;;;;;;25.66;32.96;98638.25;5016762;28;19965;-96
2023/10/15 11:40:58;;;;;;;;;;;;;;;25.57;32.21;98641.38;5016759;28;19926;-96
2023/10/15 11:43:35;;;;;;;;;;;;;;;;;;;;;
2023/10/15 11:46:23;;;;;;;;;;;;;;;;;;;;;
2023/10/15 11:48:57;;;;;;;;;;;;;;;25.60;32.93;98641.34;5015798;28;19965;-96
2023/10/15 11:51:46;;;;;;;;;;;;;;;25.56;33.11;98635.03;5016244;28;20004;-96
2023/10/15 11:54:22;;;;;;;;;;;;;;;25.51;33.12;98638.19;5014653;28;19913;-96
2023/10/15 11:57:16;;;;;;;;;;;;;;;25.46;32.88;98624.75;5017942;28;19979;-96
2023/10/15 11:59:49;;;;;;;;;;;;;;;25.40;33.64;98626.28;5019922;28;19914;-96
2023/10/15 12:02:28;;;;;;;;;;;;;;;;;;;;;
2023/10/15 12:05:19;;;;;;;;;;;;;;;25.20;33.33;98615.56;5072727;28;19943;-95
2023/10/15 12:07:50;;;;;;;;;;;;;;;25.18;33.00;98617.13;5060746;28;19917;-94
2023/10/15 12:10:20;;;;;;;;;;;;;;;25.11;32.91;98617.88;5061475;28;19912;-96
2023/10/15 12:12:49;;;;;;;;;;;;;;;25.05;33.19;98610.31;5061308;28;19920;-96
2023/10/15 12:15:31;;;;;;;;;;;;;;;25.04;33.61;98617.81;5060831;28;19912;-95
2023/10/15 12:18:02;;;;;;;;;;;;;;;25.01;33.79;98610.31;5060589;28;19963;-96
2023/10/15 12:20:45;;;;;;;;;;;;;;;24.97;33.74;98607.53;5059650;28;19916;-96
2023/10/15 12:23:27;;;;;;;;;;;;;;;;;;;;;
2023/10/15 12:26:12;;;;;;;;;;;;;;;24.97;33.93;98620.53;5062188;28;20003;-96
2023/10/15 12:28:47;;;;;;;;;;;;;;;25.07;33.71;98616.25;5059929;28;19919;-96
2023/10/15 12:31:13;;;;;;;;;;;;;;;25.16;33.91;98622.22;5057965;28;19912;-96
2023/10/15 12:33:44;;;;;;;;;;;;;;;25.20;33.77;98607.31;5041614;28;19916;-96
2023/10/15 12:36:11;;;;;;;;;;;;;;;25.19;33.41;98607.66;5057821;28;19960;-96
2023/10/15 12:38:39;;;;;;;;;;;;;;;25.23;34.03;98605.75;5058759;28;19946;-96
2023/10/15 12:41:10;;;;;;;;;;;;;;;25.26;33.77;98607.75;5059211;28;20458;-96
2023/10/15 12:43:37;;;;;;;;;;;;;;;25.33;33.58;98606.97;5059948;28;19920;-95
2023/10/15 12:46:05;;;;;;;;;;;;;;;25.36;33.42;98611.72;5062175;28;20381;-95
2023/10/15 12:48:31;;;;;;;;;;;;;;;25.32;33.46;98608.97;5062454;28;19971;-94
2023/10/15 12:51:20;;;;;;;;;;;;;;;;;;;;;
2023/10/15 12:53:46;;;;;;;;;;;;;;;25.35;33.38;98604.63;5077702;28;20015;-95
2023/10/15 12:56:12;;;;;;;;;;;;;;;25.40;33.07;98607.81;5065149;28;19959;-96
2023/10/15 12:58:39;;;;;;;;;;;;;;;25.40;33.52;98595.97;5062233;28;19924;-94
2023/10/15 13:01:05;;;;;;;;;;;;;;;25.39;33.64;98591.66;5062656;28;19935;-94
2023/10/15 13:03:32;;;;;;;;;;;;;;;25.43;33.49;98599.94;5063139;28;19913;-96
2023/10/15 13:06:02;;;;;;;;;;;;;;;25.37;33.54;98594.78;5065781;28;19920;-96
2023/10/15 13:08:28;;;;;;;;;;;;;;;25.30;33.09;98592.00;5065475;28;19912;-93
2023/10/15 13:10:56;;;;;;;;;;;;;;;25.27;33.84;98589.22;5066158;28;19917;-95
2023/10/15 13:13:21;;;;;;;;;;;;;;;25.23;34.00;98583.69;5064872;28;20362;-94
2023/10/15 13:15:47;;;;;;;;;;;;;;;25.23;33.82;98589.22;5061921;28;19913;-95
2023/10/15 13:18:12;;;;;;;;;;;;;;;25.18;33.86;98584.06;5061403;28;19940;-95
2023/10/15 13:20:39;;;;;;;;;;;;;;;25.17;33.90;98579.69;5062428;28;19920;-94
2023/10/15 13:23:04;;;;;;;;;;;;;;;25.14;34.06;98583.25;5061722;28;19916;-95
2023/10/15 13:25:30;;;;;;;;;;;;;;;25.11;34.09;98573.78;5062546;28;20366;-95
2023/10/15 13:27:58;;;;;;;;;;;;;;;25.08;34.04;98574.53;5061472;28;19920;-96
2023/10/15 13:30:24;;;;;;;;;;;;;;;25.10;34.42;98572.19;5062045;28;20046;-95
2023/10/15 13:32:57;;;;;;;;;;;;;;;25.10;34.64;98577.72;5061545;28;19946;-94
2023/10/15 13:35:22;;;;;;;;;;;;;;;25.08;34.42;98571.78;5062408;28;19934;-94
2023/10/15 13:37:53;;;;;;;;;;;;;;;25.08;34.02;98577.31;5062394;28;20007;-93
2023/10/15 13:40:21;;;;;;;;;;;;;;;25.03;34.06;98574.94;5062263;28;19967;-94
2023/10/15 13:42:48;;;;;;;;;;;;;;;25.00;34.55;98570.94;5063018;28;20301;-93
2023/10/15 13:45:15;;;;;;;;;;;;;;;24.97;34.80;98568.97;5062305;28;19972;-94
2023/10/15 13:47:40;;;;;;;;;;;;;;;24.95;34.92;98570.56;5061408;28;20405;-95
2023/10/15 13:50:12;;;;;;;;;;;;;;;24.95;35.13;98571.34;5062393;28;19913;-94
2023/10/15 13:52:39;;;;;;;;;;;;;;;24.90;35.31;98566.19;5062848;28;19947;-96
2023/10/15 13:55:07;;;;;;;;;;;;;;;24.90;34.94;98568.16;5063176;28;19916;-94
2023/10/15 13:57:37;;;;;;;;;;;;;;;24.85;35.10;98563.00;5062612;28;19917;-94
2023/10/15 14:00:11;;;;;;;;;;;;;;;24.81;35.92;98560.22;5052057;28;19912;-96
2023/10/15 14:02:37;;;;;;;;;;;;;;;24.77;35.54;98571.22;5071030;28;19913;-95